createdAt,value
2017-11-24T00:00:24.847Z,20.50
2017-11-24T00:01:24.817Z,17.40
2017-11-24T00:02:24.777Z,15.60
2017-11-24T00:03:24.746Z,17.70
2017-11-24T00:04:24.708Z,15.00
2017-11-24T00:05:24.676Z,18.00
2017-11-24T00:06:24.636Z,11.50
2017-11-24T00:07:24.597Z,17.60
2017-11-24T00:08:25.155Z,11.80
2017-11-24T00:09:24.548Z,16.70
2017-11-24T00:10:24.507Z,17.80
2017-11-24T00:11:24.481Z,22.80
2017-11-24T00:12:24.426Z,13.30
2017-11-24T00:13:24.384Z,19.00
2017-11-24T00:14:24.348Z,17.60
2017-11-24T00:15:24.318Z,21.30
2017-11-24T00:16:24.280Z,16.30
2017-11-24T00:17:24.241Z,27.00
2017-11-24T00:18:24.211Z,21.00
2017-11-24T00:19:24.198Z,15.80
2017-11-24T00:20:24.132Z,17.50
2017-11-24T00:21:24.098Z,17.20
2017-11-24T00:22:24.065Z,15.80
2017-11-24T00:23:24.026Z,16.40
2017-11-24T00:24:23.988Z,20.60
2017-11-24T00:25:23.956Z,19.70
2017-11-24T00:26:23.944Z,18.10
2017-11-24T00:27:23.889Z,17.30
2017-11-24T00:28:23.852Z,18.30
2017-11-24T00:29:23.819Z,17.60
2017-11-24T00:30:23.776Z,13.20
2017-11-24T00:31:23.746Z,16.60
2017-11-24T00:32:23.710Z,23.50
2017-11-24T00:33:23.675Z,15.30
2017-11-24T00:34:23.646Z,17.10
2017-11-24T00:35:23.604Z,21.30
2017-11-24T00:36:23.572Z,15.90
2017-11-24T00:37:23.531Z,22.80
2017-11-24T00:38:23.498Z,14.60
2017-11-24T00:39:23.475Z,16.90
2017-11-24T00:40:23.472Z,13.60
2017-11-24T00:41:23.390Z,14.00
2017-11-24T00:42:23.408Z,17.00
2017-11-24T00:43:23.323Z,13.10
2017-11-24T00:44:23.282Z,12.60
2017-11-24T00:45:23.250Z,15.10
2017-11-24T00:46:23.226Z,18.10
2017-11-24T00:47:23.178Z,17.30
2017-11-24T00:48:23.144Z,11.80
2017-11-24T00:49:23.114Z,15.10
2017-11-24T00:50:23.111Z,24.00
2017-11-24T00:51:23.037Z,20.00
2017-11-24T00:52:23.005Z,12.00
2017-11-24T00:53:22.966Z,19.30
2017-11-24T00:54:22.931Z,23.20
2017-11-24T00:55:22.905Z,18.30
2017-11-24T00:56:22.862Z,17.00
2017-11-24T00:57:22.834Z,20.10
2017-11-24T00:58:22.788Z,17.80
2017-11-24T00:59:22.753Z,15.20
2017-11-24T01:00:22.726Z,13.90
2017-11-24T01:01:22.747Z,22.60
2017-11-24T01:02:22.652Z,18.50
2017-11-24T01:03:22.619Z,21.80
2017-11-24T01:04:22.598Z,21.10
2017-11-24T01:05:22.534Z,16.20
2017-11-24T01:06:22.513Z,17.90
2017-11-24T01:07:22.469Z,15.60
2017-11-24T01:08:22.435Z,14.80
2017-11-24T01:09:22.401Z,20.20
2017-11-24T01:10:22.362Z,21.70
2017-11-24T01:11:22.326Z,16.10
2017-11-24T01:12:22.287Z,17.20
2017-11-24T01:13:22.257Z,16.50
2017-11-24T01:14:22.224Z,12.60
2017-11-24T01:15:22.178Z,13.40
2017-11-24T01:16:22.167Z,17.10
2017-11-24T01:17:22.111Z,15.00
2017-11-24T01:18:22.073Z,15.30
2017-11-24T01:19:22.047Z,17.40
2017-11-24T01:20:22.002Z,19.90
2017-11-24T01:21:21.983Z,20.10
2017-11-24T01:22:21.934Z,18.40
2017-11-24T01:23:21.890Z,16.80
2017-11-24T01:24:21.860Z,23.70
2017-11-24T01:25:21.825Z,19.80
2017-11-24T01:26:21.789Z,16.00
2017-11-24T01:27:21.753Z,17.30
2017-11-24T01:28:21.712Z,21.60
2017-11-24T01:29:21.682Z,26.20
2017-11-24T01:30:21.640Z,21.80
2017-11-24T01:31:21.613Z,19.70
2017-11-24T01:32:21.575Z,21.50
2017-11-24T01:33:21.535Z,24.50
2017-11-24T01:34:21.497Z,16.30
2017-11-24T01:35:21.469Z,21.90
2017-11-24T01:36:21.425Z,17.30
2017-11-24T01:37:21.394Z,25.50
2017-11-24T01:38:21.358Z,17.30
2017-11-24T01:39:21.319Z,27.50
2017-11-24T01:40:21.280Z,21.60
2017-11-24T01:41:21.248Z,17.90
2017-11-24T01:42:21.210Z,15.20
2017-11-24T01:43:21.175Z,16.40
2017-11-24T01:44:21.136Z,17.30
2017-11-24T01:45:21.098Z,14.90
2017-11-24T01:46:21.061Z,16.80
2017-11-24T01:47:21.024Z,21.20
2017-11-24T01:48:20.991Z,19.50
2017-11-24T01:49:20.952Z,21.20
2017-11-24T01:50:20.914Z,16.40
2017-11-24T01:51:20.880Z,19.60
2017-11-24T01:52:20.844Z,19.50
2017-11-24T01:53:20.810Z,24.10
2017-11-24T01:54:20.773Z,16.10
2017-11-24T01:55:20.757Z,14.50
2017-11-24T01:56:20.699Z,23.50
2017-11-24T01:57:20.667Z,19.00
2017-11-24T01:58:20.627Z,18.20
2017-11-24T01:59:20.586Z,16.30
2017-11-24T02:00:20.550Z,18.50
2017-11-24T02:01:20.520Z,19.00
2017-11-24T02:02:20.479Z,19.10
2017-11-24T02:03:20.449Z,18.10
2017-11-24T02:04:20.410Z,19.70
2017-11-24T02:05:20.371Z,19.60
2017-11-24T02:06:20.335Z,12.40
2017-11-24T02:07:20.309Z,16.90
2017-11-24T02:08:20.288Z,16.90
2017-11-24T02:09:20.227Z,18.40
2017-11-24T02:10:20.188Z,14.90
2017-11-24T02:11:20.159Z,14.40
2017-11-24T02:12:20.125Z,18.20
2017-11-24T02:13:20.095Z,21.70
2017-11-24T02:14:20.045Z,21.10
2017-11-24T02:15:20.006Z,20.20
2017-11-24T02:16:19.971Z,20.10
2017-11-24T02:17:19.940Z,24.60
2017-11-24T02:18:19.901Z,22.20
2017-11-24T02:19:19.856Z,22.50
2017-11-24T02:20:19.823Z,20.70
2017-11-24T02:21:19.793Z,21.80
2017-11-24T02:22:19.755Z,19.60
2017-11-24T02:23:19.716Z,21.30
2017-11-24T02:24:19.686Z,21.10
2017-11-24T02:25:19.645Z,20.50
2017-11-24T02:26:19.627Z,28.40
2017-11-24T02:27:19.569Z,28.20
2017-11-24T02:28:19.536Z,22.70
2017-11-24T02:29:19.497Z,25.80
2017-11-24T02:30:19.460Z,26.50
2017-11-24T02:31:19.421Z,24.60
2017-11-24T02:32:19.387Z,21.70
2017-11-24T02:33:19.349Z,20.70
2017-11-24T02:34:19.323Z,24.70
2017-11-24T02:35:19.284Z,21.40
2017-11-24T02:36:19.253Z,23.30
2017-11-24T02:37:19.210Z,14.90
2017-11-24T02:38:19.166Z,21.00
2017-11-24T02:39:19.129Z,24.90
2017-11-24T02:40:19.096Z,19.60
2017-11-24T02:41:19.061Z,23.30
2017-11-24T02:42:19.214Z,20.00
2017-11-24T02:43:18.987Z,18.20
2017-11-24T02:44:18.954Z,19.40
2017-11-24T02:45:18.915Z,21.20
2017-11-24T02:46:18.891Z,27.00
2017-11-24T02:47:18.843Z,30.90
2017-11-24T02:48:18.810Z,31.30
2017-11-24T02:49:18.774Z,22.20
2017-11-24T02:50:18.755Z,20.80
2017-11-24T02:51:18.705Z,20.90
2017-11-24T02:52:18.665Z,18.20
2017-11-24T02:53:18.632Z,22.60
2017-11-24T02:54:18.590Z,35.00
2017-11-24T02:55:18.558Z,28.40
2017-11-24T02:56:18.514Z,32.90
2017-11-24T02:57:18.605Z,23.30
2017-11-24T02:58:18.447Z,24.40
2017-11-24T02:59:18.407Z,30.90
2017-11-24T03:00:18.860Z,22.00
2017-11-24T03:01:18.331Z,28.40
2017-11-24T03:02:18.314Z,32.80
2017-11-24T03:03:18.294Z,23.80
2017-11-24T03:04:18.224Z,28.90
2017-11-24T03:05:18.190Z,27.40
2017-11-24T03:06:18.158Z,45.20
2017-11-24T03:07:18.127Z,33.60
2017-11-24T03:08:18.079Z,39.00
2017-11-24T03:09:18.046Z,23.90
2017-11-24T03:10:18.013Z,24.40
2017-11-24T03:11:17.968Z,21.90
2017-11-24T03:12:17.933Z,28.00
2017-11-24T03:13:17.894Z,26.70
2017-11-24T03:14:17.863Z,37.70
2017-11-24T03:15:17.821Z,34.10
2017-11-24T03:16:17.784Z,29.80
2017-11-24T03:17:17.775Z,26.90
2017-11-24T03:18:18.449Z,31.80
2017-11-24T03:19:17.680Z,26.30
2017-11-24T03:20:17.640Z,31.60
2017-11-24T03:21:17.606Z,29.10
2017-11-24T03:22:17.564Z,30.90
2017-11-24T03:23:17.527Z,39.20
2017-11-24T03:24:17.513Z,49.50
2017-11-24T03:25:17.457Z,40.00
2017-11-24T03:26:17.424Z,40.50
2017-11-24T03:27:17.387Z,44.50
2017-11-24T03:28:17.344Z,45.70
2017-11-24T03:29:17.324Z,40.70
2017-11-24T03:30:17.270Z,25.30
2017-11-24T03:31:17.232Z,37.40
2017-11-24T03:32:17.195Z,35.60
2017-11-24T03:33:17.165Z,31.80
2017-11-24T03:34:17.128Z,38.60
2017-11-24T03:35:17.097Z,35.80
2017-11-24T03:36:17.044Z,35.30
2017-11-24T03:37:17.018Z,35.90
2017-11-24T03:38:16.978Z,34.40
2017-11-24T03:39:16.936Z,28.20
2017-11-24T03:40:16.899Z,21.50
2017-11-24T03:41:16.858Z,26.00
2017-11-24T03:42:16.844Z,23.40
2017-11-24T03:43:16.792Z,23.20
2017-11-24T03:44:16.752Z,22.80
2017-11-24T03:45:16.740Z,18.50
2017-11-24T03:46:16.678Z,21.90
2017-11-24T03:47:17.172Z,19.80
2017-11-24T03:48:16.604Z,17.80
2017-11-24T03:49:16.566Z,22.60
2017-11-24T03:50:16.526Z,19.80
2017-11-24T03:51:16.492Z,22.70
2017-11-24T03:52:16.456Z,16.00
2017-11-24T03:53:16.419Z,14.00
2017-11-24T03:54:16.380Z,15.80
2017-11-24T03:55:16.345Z,19.40
2017-11-24T03:56:16.308Z,16.30
2017-11-24T03:57:16.285Z,16.10
2017-11-24T03:58:16.233Z,14.10
2017-11-24T03:59:16.194Z,20.80
2017-11-24T04:00:16.158Z,16.20
2017-11-24T04:01:16.124Z,18.90
2017-11-24T04:02:16.085Z,14.40
2017-11-24T04:03:16.053Z,13.60
2017-11-24T04:04:16.011Z,18.90
2017-11-24T04:05:15.975Z,21.50
2017-11-24T04:06:15.936Z,23.20
2017-11-24T04:07:15.900Z,14.10
2017-11-24T04:08:15.865Z,14.30
2017-11-24T04:09:15.826Z,20.30
2017-11-24T04:10:15.791Z,13.80
2017-11-24T04:11:15.753Z,16.40
2017-11-24T04:12:15.717Z,18.40
2017-11-24T04:13:15.675Z,14.70
2017-11-24T04:14:15.644Z,21.50
2017-11-24T04:15:15.607Z,16.40
2017-11-24T04:16:15.569Z,20.60
2017-11-24T04:17:15.535Z,14.00
2017-11-24T04:18:16.230Z,17.30
2017-11-24T04:19:15.459Z,21.40
2017-11-24T04:20:15.421Z,22.70
2017-11-24T04:21:15.385Z,17.10
2017-11-24T04:22:15.347Z,14.90
2017-11-24T04:23:15.312Z,29.60
2017-11-24T04:24:15.279Z,15.10
2017-11-24T04:25:15.240Z,18.70
2017-11-24T04:26:15.210Z,19.90
2017-11-24T04:27:15.163Z,18.50
2017-11-24T04:28:15.124Z,19.20
2017-11-24T04:29:15.094Z,16.70
2017-11-24T04:30:15.051Z,16.40
2017-11-24T04:31:15.017Z,13.40
2017-11-24T04:32:14.978Z,11.70
2017-11-24T04:33:14.941Z,18.00
2017-11-24T04:34:14.909Z,20.90
2017-11-24T04:35:14.865Z,14.00
2017-11-24T04:36:14.830Z,17.80
2017-11-24T04:37:14.794Z,18.30
2017-11-24T04:38:14.824Z,21.90
2017-11-24T04:39:14.717Z,19.70
2017-11-24T04:40:14.677Z,22.60
2017-11-24T04:41:14.646Z,18.80
2017-11-24T04:42:14.606Z,16.50
2017-11-24T04:43:14.570Z,20.40
2017-11-24T04:44:14.536Z,28.70
2017-11-24T04:45:14.497Z,24.90
2017-11-24T04:46:14.458Z,25.00
2017-11-24T04:47:14.421Z,31.30
2017-11-24T04:48:14.384Z,23.70
2017-11-24T04:49:14.349Z,22.10
2017-11-24T04:50:14.309Z,26.30
2017-11-24T04:51:14.290Z,24.10
2017-11-24T04:52:14.235Z,24.90
2017-11-24T04:53:14.198Z,22.60
2017-11-24T04:54:14.159Z,21.30
2017-11-24T04:55:14.126Z,24.50
2017-11-24T04:56:14.086Z,28.90
2017-11-24T04:57:14.055Z,22.10
2017-11-24T04:58:14.012Z,21.60
2017-11-24T04:59:14.450Z,30.60
2017-11-24T05:00:13.937Z,29.30
2017-11-24T05:01:13.901Z,28.20
2017-11-24T05:02:13.862Z,33.70
2017-11-24T05:03:13.831Z,26.40
2017-11-24T05:04:13.788Z,31.10
2017-11-24T05:05:13.752Z,35.80
2017-11-24T05:06:13.713Z,38.60
2017-11-24T05:07:13.676Z,43.60
2017-11-24T05:08:13.644Z,34.50
2017-11-24T05:09:13.619Z,32.90
2017-11-24T05:10:13.565Z,26.40
2017-11-24T05:11:13.529Z,28.10
2017-11-24T05:12:13.491Z,39.50
2017-11-24T05:13:13.453Z,28.40
2017-11-24T05:14:13.416Z,27.40
2017-11-24T05:15:13.384Z,27.20
2017-11-24T05:16:13.344Z,28.20
2017-11-24T05:17:13.305Z,30.80
2017-11-24T05:18:13.267Z,24.30
2017-11-24T05:19:13.233Z,31.10
2017-11-24T05:20:13.193Z,37.40
2017-11-24T05:21:13.164Z,42.20
2017-11-24T05:22:13.123Z,42.80
2017-11-24T05:23:13.080Z,32.10
2017-11-24T05:24:13.045Z,34.30
2017-11-24T05:25:13.002Z,31.70
2017-11-24T05:26:12.969Z,42.10
2017-11-24T05:27:12.933Z,40.70
2017-11-24T05:28:12.896Z,42.10
2017-11-24T05:29:12.859Z,52.10
2017-11-24T05:30:12.819Z,53.50
2017-11-24T05:31:12.785Z,45.30
2017-11-24T05:32:12.747Z,41.10
2017-11-24T05:33:12.801Z,43.60
2017-11-24T05:34:12.682Z,37.00
2017-11-24T05:35:12.641Z,38.90
2017-11-24T05:36:12.596Z,46.70
2017-11-24T05:37:12.561Z,52.00
2017-11-24T05:38:12.524Z,47.70
2017-11-24T05:39:12.488Z,33.10
2017-11-24T05:40:12.458Z,31.60
2017-11-24T05:41:12.418Z,32.50
2017-11-24T05:42:12.372Z,37.40
2017-11-24T05:43:12.338Z,42.20
2017-11-24T05:44:12.302Z,37.40
2017-11-24T05:45:12.264Z,32.60
2017-11-24T05:46:12.248Z,31.90
2017-11-24T05:47:12.188Z,36.30
2017-11-24T05:48:12.152Z,34.30
2017-11-24T05:49:12.118Z,33.70
2017-11-24T05:50:12.079Z,24.50
2017-11-24T05:51:12.041Z,24.20
2017-11-24T05:52:12.022Z,12.20
2017-11-24T05:53:11.968Z,16.10
2017-11-24T05:54:11.931Z,15.00
2017-11-24T05:55:11.890Z,12.70
2017-11-24T05:56:11.855Z,19.00
2017-11-24T05:57:11.985Z,13.90
2017-11-24T05:58:11.790Z,12.50
2017-11-24T05:59:11.755Z,16.40
2017-11-24T06:00:11.711Z,19.40
2017-11-24T06:01:11.669Z,15.40
2017-11-24T06:02:11.797Z,14.90
2017-11-24T06:03:11.611Z,16.80
2017-11-24T06:04:11.558Z,14.50
2017-11-24T06:05:11.521Z,19.20
2017-11-24T06:06:11.494Z,16.80
2017-11-24T06:07:11.447Z,18.30
2017-11-24T06:08:11.407Z,13.50
2017-11-24T06:09:11.372Z,18.90
2017-11-24T06:10:11.335Z,14.70
2017-11-24T06:11:11.294Z,16.00
2017-11-24T06:12:11.257Z,17.60
2017-11-24T06:13:11.223Z,17.90
2017-11-24T06:14:11.182Z,17.00
2017-11-24T06:15:11.144Z,20.50
2017-11-24T06:16:11.108Z,20.70
2017-11-24T06:17:11.070Z,14.90
2017-11-24T06:18:11.034Z,19.20
2017-11-24T06:19:10.995Z,20.10
2017-11-24T06:20:10.959Z,19.30
2017-11-24T06:21:10.920Z,23.10
2017-11-24T06:22:10.883Z,13.90
2017-11-24T06:23:10.843Z,26.30
2017-11-24T06:24:10.808Z,16.40
2017-11-24T06:25:10.771Z,14.00
2017-11-24T06:26:10.735Z,17.00
2017-11-24T06:27:10.702Z,16.30
2017-11-24T06:28:10.658Z,15.20
2017-11-24T06:29:10.621Z,12.90
2017-11-24T06:30:10.581Z,22.50
2017-11-24T06:31:10.545Z,19.20
2017-11-24T06:32:10.509Z,18.60
2017-11-24T06:33:10.473Z,20.60
2017-11-24T06:34:10.433Z,19.40
2017-11-24T06:35:10.396Z,25.20
2017-11-24T06:36:10.355Z,23.90
2017-11-24T06:37:10.350Z,19.40
2017-11-24T06:38:10.287Z,19.10
2017-11-24T06:39:10.246Z,19.40
2017-11-24T06:40:10.209Z,19.00
2017-11-24T06:41:10.176Z,19.30
2017-11-24T06:42:10.132Z,19.10
2017-11-24T06:43:10.094Z,20.20
2017-11-24T06:44:10.060Z,16.50
2017-11-24T06:45:10.030Z,25.80
2017-11-24T06:46:09.983Z,25.30
2017-11-24T06:47:09.948Z,16.60
2017-11-24T06:48:09.910Z,22.20
2017-11-24T06:49:10.172Z,23.30
2017-11-24T06:50:09.835Z,16.30
2017-11-24T06:51:09.798Z,21.70
2017-11-24T06:52:09.762Z,17.10
2017-11-24T06:53:09.726Z,20.90
2017-11-24T06:54:09.685Z,23.60
2017-11-24T06:55:09.649Z,20.70
2017-11-24T06:56:09.612Z,16.00
2017-11-24T06:57:09.577Z,16.40
2017-11-24T06:58:09.536Z,18.50
2017-11-24T06:59:09.500Z,14.90
2017-11-24T07:00:09.462Z,17.10
2017-11-24T07:01:10.316Z,16.10
2017-11-24T07:02:09.389Z,18.70
2017-11-24T07:03:09.356Z,16.10
2017-11-24T07:04:09.313Z,19.10
2017-11-24T07:05:09.275Z,18.80
2017-11-24T07:06:09.236Z,17.80
2017-11-24T07:07:09.204Z,19.60
2017-11-24T07:08:09.170Z,21.60
2017-11-24T07:09:09.126Z,19.00
2017-11-24T07:10:09.089Z,17.10
2017-11-24T07:11:09.052Z,22.30
2017-11-24T07:12:09.014Z,16.10
2017-11-24T07:13:08.982Z,19.00
2017-11-24T07:14:08.945Z,20.60
2017-11-24T07:15:08.901Z,19.50
2017-11-24T07:16:08.864Z,18.10
2017-11-24T07:17:08.828Z,18.10
2017-11-24T07:18:08.790Z,12.70
2017-11-24T07:19:08.761Z,16.40
2017-11-24T07:20:08.723Z,19.50
2017-11-24T07:21:08.677Z,23.40
2017-11-24T07:22:08.644Z,26.30
2017-11-24T07:23:08.608Z,26.70
2017-11-24T07:24:08.568Z,20.20
2017-11-24T07:25:08.530Z,30.60
2017-11-24T07:26:08.500Z,25.60
2017-11-24T07:27:08.455Z,23.60
2017-11-24T07:28:08.417Z,26.30
2017-11-24T07:29:08.380Z,26.10
2017-11-24T07:30:08.343Z,28.10
2017-11-24T07:31:08.306Z,27.60
2017-11-24T07:32:08.279Z,34.40
2017-11-24T07:33:08.233Z,32.90
2017-11-24T07:34:08.188Z,26.30
2017-11-24T07:35:08.157Z,28.60
2017-11-24T07:36:08.122Z,37.30
2017-11-24T07:37:08.086Z,37.60
2017-11-24T07:38:08.045Z,40.70
2017-11-24T07:39:08.010Z,37.60
2017-11-24T07:40:07.971Z,36.50
2017-11-24T07:41:07.941Z,37.50
2017-11-24T07:42:07.895Z,33.80
2017-11-24T07:43:07.867Z,34.80
2017-11-24T07:44:07.822Z,43.20
2017-11-24T07:45:07.785Z,38.00
2017-11-24T07:46:07.747Z,43.00
2017-11-24T07:47:07.710Z,45.30
2017-11-24T07:48:07.707Z,30.90
2017-11-24T07:49:07.666Z,39.40
2017-11-24T07:50:07.597Z,45.40
2017-11-24T07:51:07.561Z,35.90
2017-11-24T07:52:07.524Z,32.20
2017-11-24T07:53:07.488Z,37.30
2017-11-24T07:54:07.450Z,43.80
2017-11-24T07:55:07.414Z,78.10
2017-11-24T07:56:07.374Z,56.90
2017-11-24T07:57:07.342Z,52.30
2017-11-24T07:58:07.301Z,46.50
2017-11-24T07:59:07.264Z,79.10
2017-11-24T08:00:07.227Z,63.00
2017-11-24T08:01:07.190Z,62.60
2017-11-24T08:02:07.151Z,76.00
2017-11-24T08:03:07.115Z,59.90
2017-11-24T08:04:07.083Z,46.40
2017-11-24T08:05:07.041Z,52.30
2017-11-24T08:06:07.009Z,57.20
2017-11-24T08:07:06.970Z,60.10
2017-11-24T08:08:06.927Z,44.60
2017-11-24T08:09:06.892Z,47.40
2017-11-24T08:10:06.855Z,39.40
2017-11-24T08:11:06.817Z,47.80
2017-11-24T08:12:06.786Z,45.00
2017-11-24T08:13:06.744Z,49.10
2017-11-24T08:14:06.706Z,35.30
2017-11-24T08:15:06.667Z,42.50
2017-11-24T08:16:06.632Z,39.30
2017-11-24T08:17:06.594Z,41.80
2017-11-24T08:18:06.565Z,34.60
2017-11-24T08:19:06.518Z,39.00
2017-11-24T08:20:06.478Z,37.00
2017-11-24T08:21:06.446Z,35.50
2017-11-24T08:22:06.410Z,34.60
2017-11-24T08:23:06.370Z,22.80
2017-11-24T08:24:06.341Z,29.70
2017-11-24T08:25:06.297Z,24.70
2017-11-24T08:26:06.257Z,26.90
2017-11-24T08:27:06.221Z,26.40
2017-11-24T08:28:06.184Z,27.30
2017-11-24T08:29:06.154Z,32.30
2017-11-24T08:30:06.109Z,38.80
2017-11-24T08:31:06.072Z,34.60
2017-11-24T08:32:06.035Z,42.00
2017-11-24T08:33:06.002Z,43.30
2017-11-24T08:34:05.966Z,45.40
2017-11-24T08:35:05.929Z,40.50
2017-11-24T08:36:05.894Z,45.20
2017-11-24T08:37:05.850Z,42.80
2017-11-24T08:38:05.829Z,46.90
2017-11-24T08:39:05.772Z,44.00
2017-11-24T08:40:05.737Z,39.60
2017-11-24T08:41:05.701Z,39.60
2017-11-24T08:42:05.661Z,51.40
2017-11-24T08:43:05.624Z,50.10
2017-11-24T08:44:05.589Z,51.20
2017-11-24T08:45:05.554Z,58.60
2017-11-24T08:46:05.514Z,53.10
2017-11-24T08:47:05.484Z,47.80
2017-11-24T08:48:05.439Z,46.90
2017-11-24T08:49:05.401Z,36.80
2017-11-24T08:50:05.362Z,43.40
2017-11-24T08:51:05.326Z,33.60
2017-11-24T08:52:05.289Z,34.30
2017-11-24T08:53:05.252Z,36.70
2017-11-24T08:54:05.219Z,30.70
2017-11-24T08:55:05.173Z,33.70
2017-11-24T08:56:05.142Z,37.30
2017-11-24T08:57:05.102Z,47.30
2017-11-24T08:58:05.064Z,34.10
2017-11-24T08:59:05.029Z,31.90
2017-11-24T09:00:04.991Z,31.60
2017-11-24T09:01:04.976Z,28.20
2017-11-24T09:02:04.920Z,33.00
2017-11-24T09:03:04.880Z,33.80
2017-11-24T09:04:04.843Z,33.90
2017-11-24T09:05:04.804Z,35.10
2017-11-24T09:06:04.766Z,36.80
2017-11-24T09:07:04.736Z,26.90
2017-11-24T09:08:04.696Z,28.60
2017-11-24T09:09:04.839Z,27.90
2017-11-24T09:10:04.616Z,32.40
2017-11-24T09:11:04.583Z,28.70
2017-11-24T09:12:04.547Z,22.40
2017-11-24T09:13:04.509Z,31.10
2017-11-24T09:14:04.473Z,29.60
2017-11-24T09:15:04.436Z,25.70
2017-11-24T09:16:04.397Z,30.70
2017-11-24T09:17:04.362Z,35.60
2017-11-24T09:18:04.323Z,25.00
2017-11-24T09:19:04.290Z,23.50
2017-11-24T09:20:04.251Z,27.50
2017-11-24T09:21:04.210Z,24.70
2017-11-24T09:22:04.178Z,29.50
2017-11-24T09:23:04.138Z,22.30
2017-11-24T09:24:04.101Z,20.00
2017-11-24T09:25:04.069Z,14.40
2017-11-24T09:26:04.027Z,16.60
2017-11-24T09:27:03.990Z,18.00
2017-11-24T09:28:03.951Z,20.00
2017-11-24T09:29:03.917Z,18.40
2017-11-24T09:30:03.878Z,17.80
2017-11-24T09:31:03.842Z,22.80
2017-11-24T09:32:03.803Z,26.40
2017-11-24T09:33:03.768Z,18.20
2017-11-24T09:34:03.729Z,17.30
2017-11-24T09:35:03.690Z,17.60
2017-11-24T09:36:03.856Z,22.40
2017-11-24T09:37:03.623Z,18.30
2017-11-24T09:38:03.581Z,19.40
2017-11-24T09:39:03.544Z,22.60
2017-11-24T09:40:03.517Z,20.90
2017-11-24T09:41:03.470Z,16.00
2017-11-24T09:42:03.432Z,15.00
2017-11-24T09:43:03.397Z,20.20
2017-11-24T09:44:03.357Z,20.80
2017-11-24T09:45:03.323Z,21.70
2017-11-24T09:46:03.286Z,15.10
2017-11-24T09:47:03.244Z,21.90
2017-11-24T09:48:03.212Z,20.90
2017-11-24T09:49:03.186Z,21.60
2017-11-24T09:50:03.141Z,20.80
2017-11-24T09:51:03.101Z,18.10
2017-11-24T09:52:03.064Z,17.50
2017-11-24T09:53:03.026Z,17.70
2017-11-24T09:54:02.992Z,22.30
2017-11-24T09:55:02.954Z,19.90
2017-11-24T09:56:02.916Z,24.10
2017-11-24T09:57:02.879Z,18.30
2017-11-24T09:58:02.840Z,24.50
2017-11-24T09:59:02.805Z,22.60
2017-11-24T10:00:02.772Z,29.30
2017-11-24T10:01:02.732Z,26.80
2017-11-24T10:02:02.696Z,27.30
2017-11-24T10:03:02.660Z,24.60
2017-11-24T10:04:02.623Z,25.10
2017-11-24T10:05:02.583Z,33.40
2017-11-24T10:06:02.546Z,24.50
2017-11-24T10:07:02.509Z,25.60
2017-11-24T10:08:02.476Z,24.80
2017-11-24T10:09:02.435Z,25.60
2017-11-24T10:10:02.398Z,26.40
2017-11-24T10:11:02.363Z,20.90
2017-11-24T10:12:02.325Z,22.20
2017-11-24T10:13:02.289Z,24.10
2017-11-24T10:14:02.257Z,19.40
2017-11-24T10:15:02.216Z,24.50
2017-11-24T10:16:02.178Z,21.40
2017-11-24T10:17:02.141Z,31.00
2017-11-24T10:18:02.102Z,16.40
2017-11-24T10:19:02.066Z,22.50
2017-11-24T10:20:02.036Z,30.30
2017-11-24T10:21:01.995Z,23.20
2017-11-24T10:22:01.954Z,26.30
2017-11-24T10:23:01.918Z,30.00
2017-11-24T10:24:01.881Z,33.60
2017-11-24T10:25:01.845Z,34.10
2017-11-24T10:26:01.825Z,31.30
2017-11-24T10:27:01.770Z,34.30
2017-11-24T10:28:01.732Z,30.80
2017-11-24T10:29:01.703Z,28.00
2017-11-24T10:30:01.660Z,26.50
2017-11-24T10:31:01.626Z,25.20
2017-11-24T10:32:01.586Z,26.60
2017-11-24T10:33:01.562Z,23.90
2017-11-24T10:34:01.513Z,29.50
2017-11-24T10:35:01.473Z,23.20
2017-11-24T10:36:01.439Z,21.20
2017-11-24T10:37:01.404Z,25.70
2017-11-24T10:38:01.367Z,22.70
2017-11-24T10:39:01.329Z,21.60
2017-11-24T10:40:01.291Z,18.30
2017-11-24T10:41:01.259Z,21.00
2017-11-24T10:42:01.216Z,25.40
2017-11-24T10:43:01.179Z,22.10
2017-11-24T10:44:01.146Z,21.40
2017-11-24T10:45:01.128Z,18.50
2017-11-24T10:46:01.070Z,21.90
2017-11-24T10:47:01.033Z,19.60
2017-11-24T10:48:00.997Z,25.30
2017-11-24T10:49:00.963Z,22.60
2017-11-24T10:50:00.923Z,23.50
2017-11-24T10:51:00.888Z,16.30
2017-11-24T10:52:00.851Z,25.80
2017-11-24T10:53:00.815Z,29.80
2017-11-24T10:54:00.782Z,23.20
2017-11-24T10:55:00.737Z,22.40
2017-11-24T10:56:00.708Z,20.40
2017-11-24T10:57:00.673Z,19.20
2017-11-24T10:58:00.632Z,23.50
2017-11-24T10:59:00.593Z,27.20
2017-11-24T11:00:00.558Z,22.10
2017-11-24T11:01:00.520Z,25.60
2017-11-24T11:02:00.484Z,26.70
2017-11-24T11:03:00.449Z,27.60
2017-11-24T11:04:00.413Z,24.00
2017-11-24T11:05:00.378Z,31.50
2017-11-24T11:06:00.337Z,35.50
2017-11-24T11:07:00.303Z,26.00
2017-11-24T11:08:00.266Z,24.60
2017-11-24T11:09:00.230Z,30.50
2017-11-24T11:10:00.196Z,32.20
2017-11-24T11:11:00.157Z,33.40
2017-11-24T11:12:00.121Z,37.60
2017-11-24T11:13:00.083Z,33.70
2017-11-24T11:14:00.048Z,33.10
2017-11-24T11:15:00.013Z,28.00
2017-11-24T11:15:59.975Z,32.50
2017-11-24T11:16:59.941Z,29.20
2017-11-24T11:17:59.904Z,31.00
2017-11-24T11:18:59.867Z,33.50
2017-11-24T11:19:59.830Z,25.20
2017-11-24T11:20:59.794Z,29.60
2017-11-24T11:21:59.759Z,29.60
2017-11-24T11:22:59.720Z,36.50
2017-11-24T11:23:59.911Z,31.30
2017-11-24T11:24:59.650Z,26.40
2017-11-24T11:25:59.915Z,31.30
2017-11-24T11:26:59.572Z,27.30
2017-11-24T11:27:59.541Z,21.30
2017-11-24T11:28:59.504Z,27.20
2017-11-24T11:29:59.916Z,28.70
2017-11-24T11:30:59.429Z,24.70
2017-11-24T11:31:59.395Z,27.10
2017-11-24T11:32:59.359Z,32.80
2017-11-24T11:34:00.149Z,31.60
2017-11-24T11:34:59.285Z,27.80
2017-11-24T11:35:59.248Z,27.70
2017-11-24T11:36:59.212Z,38.80
2017-11-24T11:37:59.178Z,34.20
2017-11-24T11:38:59.158Z,37.30
2017-11-24T11:39:59.103Z,42.30
2017-11-24T11:40:59.066Z,41.90
2017-11-24T11:41:59.028Z,34.90
2017-11-24T11:42:58.993Z,32.80
2017-11-24T11:43:58.957Z,40.40
2017-11-24T11:44:58.930Z,40.70
2017-11-24T11:45:58.882Z,39.10
2017-11-24T11:46:58.848Z,41.00
2017-11-24T11:47:58.809Z,40.40
2017-11-24T11:48:58.772Z,42.80
2017-11-24T11:49:58.735Z,39.80
2017-11-24T11:50:58.701Z,44.90
2017-11-24T11:51:58.659Z,51.40
2017-11-24T11:52:58.633Z,40.10
2017-11-24T11:53:58.594Z,44.30
2017-11-24T11:54:58.557Z,75.90
2017-11-24T11:55:58.516Z,58.30
2017-11-24T11:56:58.481Z,48.60
2017-11-24T11:57:58.442Z,43.50
2017-11-24T11:58:58.479Z,51.20
2017-11-24T11:59:58.370Z,52.50
2017-11-24T12:00:58.334Z,47.10
2017-11-24T12:01:58.295Z,50.30
2017-11-24T12:02:58.670Z,55.20
2017-11-24T12:03:58.668Z,55.30
2017-11-24T12:04:58.185Z,46.50
2017-11-24T12:05:58.158Z,42.00
2017-11-24T12:06:58.302Z,39.40
2017-11-24T12:07:58.076Z,39.40
2017-11-24T12:08:58.042Z,38.10
2017-11-24T12:09:58.004Z,37.20
2017-11-24T12:10:57.968Z,37.10
2017-11-24T12:11:57.934Z,33.60
2017-11-24T12:12:57.897Z,36.60
2017-11-24T12:13:57.855Z,39.10
2017-11-24T12:14:57.827Z,37.40
2017-11-24T12:15:57.805Z,38.60
2017-11-24T12:16:57.878Z,37.90
2017-11-24T12:17:57.709Z,53.80
2017-11-24T12:18:57.680Z,45.50
2017-11-24T12:19:57.634Z,54.00
2017-11-24T12:20:57.600Z,40.20
2017-11-24T12:21:57.564Z,40.40
2017-11-24T12:22:57.523Z,39.20
2017-11-24T12:23:57.489Z,35.00
2017-11-24T12:24:57.460Z,43.40
2017-11-24T12:25:57.414Z,40.00
2017-11-24T12:26:57.376Z,33.70
2017-11-24T12:27:57.341Z,32.50
2017-11-24T12:28:57.305Z,36.70
2017-11-24T12:29:57.268Z,33.70
2017-11-24T12:30:57.236Z,45.00
2017-11-24T12:31:57.195Z,38.50
2017-11-24T12:32:57.160Z,32.50
2017-11-24T12:33:57.204Z,34.20
2017-11-24T12:34:57.085Z,31.80
2017-11-24T12:35:57.066Z,27.10
2017-11-24T12:36:57.008Z,28.00
2017-11-24T12:37:56.976Z,39.20
2017-11-24T12:38:56.943Z,33.40
2017-11-24T12:39:56.914Z,25.30
2017-11-24T12:40:56.864Z,31.10
2017-11-24T12:41:56.825Z,33.70
2017-11-24T12:42:56.791Z,30.60
2017-11-24T12:43:56.753Z,26.70
2017-11-24T12:44:56.719Z,27.70
2017-11-24T12:45:56.678Z,22.50
2017-11-24T12:46:56.645Z,23.00
2017-11-24T12:47:56.607Z,25.60
2017-11-24T12:48:56.569Z,26.20
2017-11-24T12:49:56.533Z,32.80
2017-11-24T12:50:56.505Z,21.20
2017-11-24T12:51:56.459Z,21.30